GCLA/SPC METAR and TAF weather

Enter ICAO airport designator
Station Type Date Time Source
GCLA METAR 2020/01/20 16:00 UTC NOAA

GCLA 201600Z 03014KT 350V060 9999 BKN040 19/11 Q1017


Station Type Date Time Source
GCLA Decoded METAR 2020/01/20 16:00 UTC NOAA

La Palma / Aeropuerto, Spain (GCLA) 28-37N 017-45W 31M
Jan 20, 2020 - 11:00 AM EST / 2020.01.20 1600 UTC
Wind: from the NNE (030 degrees) at 16 MPH (14 KT) (direction variable):0
Visibility: greater than 7 mile(s):0
Sky conditions: mostly cloudy
Temperature: 66 F (19 C)
Dew Point: 51 F (11 C)
Relative Humidity: 59%
Pressure (altimeter): 30.03 in. Hg (1017 hPa)
ob: GCLA 201600Z 03014KT 350V060 9999 BKN040 19/11 Q1017
cycle: 16

Station Type Date Time Source
GCLA TAF 2020/01/20 15:30 UTC NOAA

TAF GCLA 201400Z 2015/2115 02013KT 9999 BKN038 TX20/2015Z TN16/2106Z PROB40
TEMPO 2107/2110 RA

Example: see airport list